createdAt,value
2017-09-13T00:00:14.697Z,2.67
2017-09-13T00:02:41.281Z,3.10
2017-09-13T00:05:07.857Z,3.50
2017-09-13T00:07:34.446Z,3.20
2017-09-13T00:10:01.016Z,3.60
2017-09-13T00:12:27.595Z,4.07
2017-09-13T00:14:54.188Z,4.43
2017-09-13T00:17:20.762Z,3.70
2017-09-13T00:19:47.329Z,3.70
2017-09-13T00:22:13.914Z,3.90
2017-09-13T00:24:40.490Z,3.43
2017-09-13T00:27:07.109Z,3.00
2017-09-13T00:29:33.712Z,3.80
2017-09-13T00:32:00.290Z,3.80
2017-09-13T00:34:26.886Z,3.80
2017-09-13T00:36:53.466Z,3.17
2017-09-13T00:39:20.042Z,3.40
2017-09-13T00:41:46.622Z,3.47
2017-09-13T00:44:13.225Z,3.30
2017-09-13T00:46:39.794Z,3.20
2017-09-13T00:49:06.364Z,3.87
2017-09-13T00:51:32.985Z,3.20
2017-09-13T00:53:59.562Z,3.50
2017-09-13T00:56:26.128Z,3.63
2017-09-13T00:58:52.804Z,3.00
2017-09-13T01:01:19.389Z,3.50
2017-09-13T02:15:11.793Z,1.90
2017-09-13T02:17:38.387Z,2.47
2017-09-13T02:20:04.996Z,2.50
2017-09-13T02:22:32.022Z,1.93
2017-09-13T02:24:58.612Z,1.90
2017-09-13T02:27:25.245Z,2.30
2017-09-13T02:29:51.829Z,2.13
2017-09-13T02:32:18.401Z,2.30
2017-09-13T02:34:45.024Z,1.90
2017-09-13T02:37:11.594Z,2.13
2017-09-13T02:39:38.225Z,2.30
2017-09-13T02:42:04.810Z,2.17
2017-09-13T02:44:31.385Z,2.40
2017-09-13T02:46:57.978Z,1.97
2017-09-13T02:49:24.553Z,2.47
2017-09-13T02:51:51.141Z,2.30
2017-09-13T02:54:17.723Z,2.40
2017-09-13T02:56:44.341Z,2.30
2017-09-13T02:59:10.937Z,2.13
2017-09-13T03:01:37.518Z,2.73
2017-09-13T03:04:04.109Z,2.77
2017-09-13T03:06:30.673Z,2.40
2017-09-13T03:08:57.604Z,2.07
2017-09-13T03:11:24.172Z,2.80
2017-09-13T03:13:50.753Z,2.30
2017-09-13T03:16:17.349Z,2.20
2017-09-13T03:18:43.928Z,2.80
2017-09-13T03:21:10.515Z,2.80
2017-09-13T03:23:37.090Z,2.57
2017-09-13T03:26:03.666Z,2.37
2017-09-13T03:28:30.246Z,2.33
2017-09-13T03:30:56.934Z,3.17
2017-09-13T03:33:23.509Z,2.33
2017-09-13T03:35:50.101Z,2.50
2017-09-13T03:38:16.682Z,2.67
2017-09-13T03:40:43.269Z,2.67
2017-09-13T03:43:09.849Z,2.57
2017-09-13T03:45:36.437Z,2.40
2017-09-13T03:48:03.021Z,2.50
2017-09-13T03:50:29.594Z,2.30
2017-09-13T03:52:56.201Z,2.33
2017-09-13T03:55:22.783Z,1.90
2017-09-13T03:57:49.357Z,2.10
2017-09-13T04:00:15.937Z,1.90
2017-09-13T04:02:42.522Z,2.00
2017-09-13T04:05:09.144Z,2.43
2017-09-13T04:07:35.721Z,1.90
2017-09-13T04:10:02.308Z,1.93
2017-09-13T04:12:28.881Z,1.77
2017-09-13T04:14:55.517Z,1.40
2017-09-13T04:17:22.110Z,1.53
2017-09-13T04:19:48.696Z,1.30
2017-09-13T04:22:15.268Z,1.40
2017-09-13T04:24:42.002Z,1.10
2017-09-13T04:27:08.573Z,1.20
2017-09-13T04:29:35.166Z,1.20
2017-09-13T04:32:01.745Z,1.30
2017-09-13T04:34:28.325Z,1.33
2017-09-13T04:36:54.916Z,1.10
2017-09-13T04:39:21.485Z,1.30
2017-09-13T04:41:48.072Z,2.90
2017-09-13T04:44:14.637Z,1.40
2017-09-13T04:46:41.572Z,1.20
2017-09-13T04:49:08.172Z,1.00
2017-09-13T04:51:34.745Z,1.20
2017-09-13T04:54:01.326Z,0.90
2017-09-13T04:56:27.892Z,0.97
2017-09-13T04:58:54.557Z,1.10
2017-09-13T05:01:21.114Z,0.90
2017-09-13T05:03:51.198Z,0.80
2017-09-13T05:06:17.977Z,0.90
2017-09-13T05:08:44.877Z,0.80
2017-09-13T05:11:11.469Z,0.80
2017-09-13T05:13:38.045Z,1.00
2017-09-13T05:16:04.631Z,0.80
2017-09-13T05:18:31.202Z,0.90
2017-09-13T05:20:57.791Z,0.80
2017-09-13T05:23:24.357Z,0.83
2017-09-13T05:25:50.954Z,0.70
2017-09-13T05:28:17.537Z,0.70
2017-09-13T05:30:44.119Z,0.80
2017-09-13T05:33:10.699Z,0.80
2017-09-13T05:35:37.297Z,0.70
2017-09-13T05:38:03.882Z,0.80
2017-09-13T05:40:30.458Z,0.80
2017-09-13T05:42:57.038Z,0.90
2017-09-13T05:45:23.610Z,0.70
2017-09-13T05:47:50.199Z,0.83
2017-09-13T05:50:16.777Z,0.70
2017-09-13T05:52:43.440Z,0.60
2017-09-13T05:55:10.021Z,0.57
2017-09-13T05:57:36.597Z,0.60
2017-09-13T06:00:03.570Z,0.70
2017-09-13T06:02:30.148Z,0.60
2017-09-13T06:04:56.727Z,0.60
2017-09-13T06:07:23.393Z,0.57
2017-09-13T06:09:49.986Z,0.60
2017-09-13T06:12:16.566Z,0.53
2017-09-13T06:14:43.269Z,0.50
2017-09-13T06:17:09.829Z,0.80
2017-09-13T06:19:36.405Z,0.50
2017-09-13T06:22:03.191Z,0.63
2017-09-13T06:24:29.822Z,0.50
2017-09-13T06:26:56.402Z,0.53
2017-09-13T06:29:25.197Z,0.60
2017-09-13T06:31:51.781Z,0.60
2017-09-13T06:34:18.356Z,0.87
2017-09-13T06:36:44.992Z,0.60
2017-09-13T06:39:11.553Z,0.50
2017-09-13T06:41:38.135Z,0.60
2017-09-13T06:44:05.014Z,0.63
2017-09-13T06:46:31.661Z,0.60
2017-09-13T06:48:59.130Z,0.60
2017-09-13T06:51:25.764Z,0.60
2017-09-13T06:53:53.022Z,0.60
2017-09-13T06:56:19.653Z,0.70
2017-09-13T06:58:46.230Z,0.70
2017-09-13T07:01:12.804Z,0.60
2017-09-13T07:03:39.389Z,0.67
2017-09-13T07:06:06.093Z,0.90
2017-09-13T07:08:32.670Z,0.87
2017-09-13T07:10:59.321Z,0.80
2017-09-13T07:13:25.914Z,0.73
2017-09-13T07:15:52.521Z,0.63
2017-09-13T07:21:04.224Z,0.80
2017-09-13T07:23:30.813Z,0.70
2017-09-13T07:25:57.409Z,0.80
2017-09-13T07:28:24.022Z,0.87
2017-09-13T07:30:50.585Z,0.77
2017-09-13T07:33:17.161Z,0.60
2017-09-13T07:35:43.741Z,0.70
2017-09-13T07:38:10.334Z,1.00
2017-09-13T07:40:45.078Z,1.10
2017-09-13T07:43:15.048Z,1.67
2017-09-13T07:45:41.629Z,1.93
2017-09-13T07:48:08.210Z,1.63
2017-09-13T07:50:35.041Z,1.70
2017-09-13T07:53:01.685Z,2.17
2017-09-13T07:55:28.367Z,2.13
2017-09-13T07:57:54.966Z,2.07
2017-09-13T08:00:21.561Z,2.60
2017-09-13T08:02:48.145Z,3.00
2017-09-13T08:05:14.725Z,2.53
2017-09-13T08:07:41.873Z,2.20
2017-09-13T08:10:08.437Z,2.60
2017-09-13T08:12:35.013Z,2.40
2017-09-13T08:15:01.672Z,2.90
2017-09-13T08:17:28.249Z,3.00
2017-09-13T08:20:07.621Z,2.43
2017-09-13T08:22:34.201Z,2.30
2017-09-13T08:25:04.005Z,2.60
2017-09-13T08:27:33.629Z,3.10
2017-09-13T08:30:00.610Z,2.57
2017-09-13T08:32:27.315Z,3.00
2017-09-13T08:34:53.895Z,2.67
2017-09-13T08:37:20.466Z,2.40
2017-09-13T08:39:47.049Z,2.47
2017-09-13T08:42:13.713Z,2.40
2017-09-13T08:44:40.292Z,2.50
2017-09-13T08:47:06.866Z,2.33
2017-09-13T08:49:33.461Z,2.87
2017-09-13T08:52:00.042Z,2.80
2017-09-13T08:54:26.792Z,2.43
2017-09-13T08:56:53.370Z,2.37
2017-09-13T08:59:20.281Z,2.90
2017-09-13T09:01:46.981Z,2.63
2017-09-13T09:04:13.557Z,2.50
2017-09-13T09:06:40.145Z,2.10
2017-09-13T09:09:06.729Z,3.00
2017-09-13T09:11:33.314Z,2.73
2017-09-13T09:13:59.887Z,3.00
2017-09-13T09:16:26.716Z,2.77
2017-09-13T09:18:53.281Z,3.13
2017-09-13T09:21:19.873Z,2.70
2017-09-13T09:23:46.481Z,2.50
2017-09-13T09:26:13.070Z,3.00
2017-09-13T09:28:39.650Z,2.93
2017-09-13T09:31:06.217Z,2.80
2017-09-13T09:33:32.833Z,2.60
2017-09-13T09:35:59.414Z,2.60
2017-09-13T09:38:26.018Z,1.90
2017-09-13T09:40:52.581Z,2.40
2017-09-13T09:43:19.160Z,1.97
2017-09-13T09:45:45.740Z,2.23
2017-09-13T09:48:12.308Z,2.40
2017-09-13T09:50:39.510Z,2.60
2017-09-13T09:53:06.099Z,2.40
2017-09-13T09:55:32.685Z,2.60
2017-09-13T09:57:59.261Z,2.60
2017-09-13T10:00:25.860Z,2.00
2017-09-13T10:02:52.428Z,2.10
2017-09-13T10:05:19.005Z,2.57
2017-09-13T10:07:45.596Z,2.13
2017-09-13T10:10:12.157Z,1.70
2017-09-13T10:12:38.898Z,2.00
2017-09-13T10:15:05.465Z,1.90
2017-09-13T10:17:32.032Z,2.07
2017-09-13T10:19:58.618Z,1.50
2017-09-13T10:22:25.195Z,1.10
2017-09-13T10:24:51.881Z,1.20
2017-09-13T10:27:18.457Z,1.27
2017-09-13T10:29:45.029Z,1.00
2017-09-13T10:32:11.613Z,1.30
2017-09-13T10:34:38.193Z,1.20
2017-09-13T10:37:04.775Z,1.33
2017-09-13T10:39:31.344Z,1.73
2017-09-13T10:41:57.932Z,1.70
2017-09-13T10:44:24.499Z,1.90
2017-09-13T10:46:51.462Z,1.43
2017-09-13T10:49:18.029Z,1.97
2017-09-13T10:51:44.619Z,1.90
2017-09-13T10:54:11.188Z,1.90
2017-09-13T10:56:37.772Z,1.70
2017-09-13T10:59:04.358Z,1.87
2017-09-13T11:01:30.937Z,1.50
2017-09-13T11:03:57.517Z,1.90
2017-09-13T11:06:24.138Z,1.43
2017-09-13T11:08:50.717Z,1.80
2017-09-13T11:11:17.296Z,1.70
2017-09-13T11:13:43.866Z,1.90
2017-09-13T11:16:10.469Z,1.90
2017-09-13T11:18:37.040Z,1.80
2017-09-13T11:21:03.624Z,1.50
2017-09-13T11:23:30.193Z,1.80
2017-09-13T11:25:56.782Z,1.53
2017-09-13T11:28:23.365Z,1.50
2017-09-13T11:30:49.939Z,1.53
2017-09-13T11:33:16.673Z,1.20
2017-09-13T11:35:43.254Z,1.33
2017-09-13T11:38:09.835Z,1.20
2017-09-13T11:40:36.409Z,1.30
2017-09-13T11:43:02.985Z,1.40
2017-09-13T11:45:29.571Z,1.20
2017-09-13T11:47:56.333Z,1.50
2017-09-13T11:50:22.897Z,1.47
2017-09-13T11:52:49.488Z,1.50
2017-09-13T11:55:16.082Z,1.73
2017-09-13T11:57:42.673Z,1.47
2017-09-13T12:00:09.257Z,1.70
2017-09-13T12:02:35.828Z,1.77
2017-09-13T12:05:02.593Z,1.83
2017-09-13T12:07:29.187Z,1.73
2017-09-13T12:09:55.768Z,1.60
2017-09-13T12:12:22.985Z,1.80
2017-09-13T12:14:49.561Z,1.90
2017-09-13T12:17:17.151Z,1.50
2017-09-13T12:19:44.881Z,1.63
2017-09-13T12:22:11.481Z,1.90
2017-09-13T12:24:38.050Z,1.40
2017-09-13T12:27:04.693Z,1.80
2017-09-13T12:29:31.266Z,1.67
2017-09-13T12:31:57.901Z,1.50
2017-09-13T12:34:24.553Z,1.80
2017-09-13T12:36:51.105Z,2.07
2017-09-13T12:39:17.692Z,1.40
2017-09-13T12:41:44.266Z,1.57
2017-09-13T12:44:10.863Z,1.27
2017-09-13T12:46:37.459Z,1.60
2017-09-13T12:49:04.398Z,1.73
2017-09-13T12:51:30.974Z,1.50
2017-09-13T12:53:57.557Z,1.53
2017-09-13T12:56:33.791Z,1.50
2017-09-13T12:59:00.361Z,1.07
2017-09-13T13:01:26.983Z,1.00
2017-09-13T13:03:53.540Z,0.90
2017-09-13T13:06:20.113Z,1.10
2017-09-13T13:08:46.686Z,1.20
2017-09-13T13:11:16.285Z,1.00
2017-09-13T13:13:42.898Z,0.80
2017-09-13T13:16:09.493Z,0.87
2017-09-13T13:18:36.073Z,0.93
2017-09-13T13:21:02.657Z,0.80
2017-09-13T13:23:29.242Z,0.90
2017-09-13T13:25:55.838Z,1.30
2017-09-13T13:28:22.407Z,1.20
2017-09-13T13:30:48.978Z,0.97
2017-09-13T13:33:15.561Z,2.43
2017-09-13T13:35:42.150Z,1.43
2017-09-13T13:38:08.797Z,3.17
2017-09-13T13:40:35.385Z,2.20
2017-09-13T13:43:01.966Z,1.30
2017-09-13T13:45:28.579Z,4.00
2017-09-13T13:47:55.157Z,4.20
2017-09-13T13:50:21.753Z,0.93
2017-09-13T13:52:48.333Z,1.00
2017-09-13T13:55:15.501Z,2.97
2017-09-13T13:57:42.081Z,2.50
2017-09-13T14:00:08.650Z,1.97
2017-09-13T14:02:35.229Z,2.90
2017-09-13T14:05:01.811Z,2.43
2017-09-13T14:07:28.397Z,3.10
2017-09-13T14:09:54.983Z,4.50
2017-09-13T14:12:21.580Z,3.17
2017-09-13T14:14:48.165Z,2.80
2017-09-13T14:17:14.762Z,2.70
2017-09-13T14:19:41.346Z,2.90
2017-09-13T14:22:07.920Z,3.83
2017-09-13T14:24:34.505Z,4.10
2017-09-13T14:27:01.187Z,3.47
2017-09-13T14:29:27.770Z,3.63
2017-09-13T14:31:54.350Z,2.90
2017-09-13T14:34:20.933Z,2.80
2017-09-13T14:36:47.514Z,3.30
2017-09-13T14:39:14.097Z,3.30
2017-09-13T14:41:40.687Z,3.37
2017-09-13T14:44:11.085Z,3.10
2017-09-13T14:46:37.976Z,2.70
2017-09-13T14:49:04.637Z,2.37
2017-09-13T14:51:31.209Z,2.30
2017-09-13T14:53:57.810Z,1.97
2017-09-13T14:56:24.441Z,1.70
2017-09-13T14:58:51.048Z,1.50
2017-09-13T15:01:17.630Z,1.60
2017-09-13T15:03:44.297Z,1.30
2017-09-13T15:06:14.676Z,1.90
2017-09-13T15:08:41.253Z,1.70
2017-09-13T15:11:07.834Z,5.70
2017-09-13T15:13:34.418Z,3.20
2017-09-13T15:16:01.057Z,2.30
2017-09-13T15:18:27.853Z,4.37
2017-09-13T15:20:54.454Z,5.10
2017-09-13T15:23:21.062Z,4.03
2017-09-13T15:25:47.646Z,2.40
2017-09-13T15:28:14.302Z,3.27
2017-09-13T15:30:40.889Z,6.20
2017-09-13T15:33:07.553Z,3.60
2017-09-13T15:35:34.245Z,2.23
2017-09-13T15:38:00.827Z,3.37
2017-09-13T15:40:27.407Z,2.50
2017-09-13T15:42:53.978Z,2.70
2017-09-13T15:45:20.561Z,2.50
2017-09-13T15:47:47.152Z,2.50
2017-09-13T15:50:13.738Z,2.20
2017-09-13T15:52:40.344Z,2.20
2017-09-13T15:55:06.913Z,2.27
2017-09-13T15:57:34.533Z,2.03
2017-09-13T16:00:11.392Z,2.13
2017-09-13T16:02:39.056Z,2.30
2017-09-13T16:05:11.911Z,1.97
2017-09-13T16:07:38.488Z,2.73
2017-09-13T16:10:05.073Z,2.10
2017-09-13T16:12:31.650Z,1.67
2017-09-13T16:14:58.242Z,2.20
2017-09-13T16:17:24.828Z,2.27
2017-09-13T16:19:51.404Z,2.80
2017-09-13T16:22:17.974Z,2.20
2017-09-13T16:24:44.603Z,2.50
2017-09-13T16:27:11.181Z,2.73
2017-09-13T16:29:37.795Z,2.63
2017-09-13T16:32:04.374Z,2.20
2017-09-13T16:34:41.685Z,2.47
2017-09-13T16:37:08.270Z,6.43
2017-09-13T16:39:40.747Z,3.37
2017-09-13T16:42:07.325Z,3.53
2017-09-13T16:44:33.908Z,4.40
2017-09-13T16:47:00.485Z,3.57
2017-09-13T16:49:27.069Z,5.03
2017-09-13T16:51:53.672Z,3.03
2017-09-13T16:54:20.237Z,3.20
2017-09-13T16:56:46.982Z,3.10
2017-09-13T16:59:13.570Z,3.63
2017-09-13T17:01:40.136Z,3.13
2017-09-13T17:04:06.843Z,3.10
2017-09-13T17:06:33.425Z,4.00
2017-09-13T17:09:00.014Z,3.30
2017-09-13T17:11:26.596Z,3.37
2017-09-13T17:13:53.177Z,4.50
2017-09-13T17:16:19.925Z,3.43
2017-09-13T17:18:46.659Z,3.70
2017-09-13T17:21:13.241Z,3.80
2017-09-13T17:23:39.825Z,3.63
2017-09-13T17:26:06.413Z,3.43
2017-09-13T17:28:33.217Z,3.90
2017-09-13T17:30:59.797Z,3.93
2017-09-13T17:33:26.427Z,4.30
2017-09-13T17:35:53.190Z,3.90
2017-09-13T17:38:19.761Z,4.27
2017-09-13T17:40:46.337Z,4.53
2017-09-13T17:43:13.056Z,4.27
2017-09-13T17:45:39.671Z,4.40
2017-09-13T17:48:06.277Z,4.00
2017-09-13T17:50:32.930Z,3.57
2017-09-13T17:52:59.564Z,3.40
2017-09-13T17:55:26.160Z,3.60
2017-09-13T17:57:52.742Z,3.10
2017-09-13T18:00:19.325Z,3.93
2017-09-13T18:02:45.909Z,3.97
2017-09-13T18:05:12.518Z,3.47
2017-09-13T18:07:39.081Z,3.30
2017-09-13T18:10:05.661Z,3.90
2017-09-13T18:12:32.237Z,3.77
2017-09-13T18:14:59.132Z,3.80
2017-09-13T18:17:25.722Z,3.70
2017-09-13T18:19:52.309Z,4.37
2017-09-13T18:22:18.889Z,3.53
2017-09-13T18:24:45.471Z,3.67
2017-09-13T18:27:12.071Z,4.10
2017-09-13T18:29:38.649Z,3.70
2017-09-13T18:32:05.233Z,3.40
2017-09-13T18:34:31.821Z,3.57
2017-09-13T18:36:58.405Z,3.70
2017-09-13T18:39:24.985Z,4.40
2017-09-13T18:41:51.566Z,4.37
2017-09-13T18:44:18.154Z,4.80
2017-09-13T18:46:44.741Z,4.50
2017-09-13T18:49:11.854Z,4.60
2017-09-13T18:51:38.436Z,4.13
2017-09-13T18:54:05.022Z,4.70
2017-09-13T18:56:31.606Z,4.43
2017-09-13T18:58:58.983Z,5.10
2017-09-13T19:01:25.596Z,3.93
2017-09-13T19:03:53.157Z,5.37
2017-09-13T19:06:19.737Z,4.30
2017-09-13T19:08:46.345Z,4.20
2017-09-13T19:11:14.992Z,3.77
2017-09-13T19:13:42.346Z,4.93
2017-09-13T19:16:10.429Z,4.03
2017-09-13T19:18:37.894Z,4.70
2017-09-13T19:21:04.487Z,3.90
2017-09-13T19:23:31.083Z,3.80
2017-09-13T19:25:57.685Z,4.50
2017-09-13T19:28:24.272Z,4.03
2017-09-13T19:30:51.485Z,4.37
2017-09-13T19:33:18.222Z,4.50
2017-09-13T19:35:44.800Z,4.40
2017-09-13T19:38:11.384Z,4.27
2017-09-13T19:40:37.970Z,3.90
2017-09-13T19:43:04.545Z,4.60
2017-09-13T19:45:31.147Z,4.23
2017-09-13T19:47:57.742Z,4.10
2017-09-13T19:50:24.326Z,3.50
2017-09-13T19:52:50.901Z,4.10
2017-09-13T19:55:17.601Z,3.87
2017-09-13T19:57:44.174Z,6.17
2017-09-13T20:00:10.753Z,3.97
2017-09-13T20:02:37.346Z,4.50
2017-09-13T20:05:03.953Z,4.20
2017-09-13T20:07:30.536Z,3.83
2017-09-13T20:09:57.115Z,4.27
2017-09-13T20:12:23.697Z,3.90
2017-09-13T20:14:50.284Z,3.60
2017-09-13T20:17:16.893Z,4.67
2017-09-13T20:19:43.481Z,3.73
2017-09-13T20:22:10.101Z,4.00
2017-09-13T20:24:36.682Z,3.77
2017-09-13T20:27:03.261Z,4.40
2017-09-13T20:29:29.849Z,4.40
2017-09-13T20:31:56.439Z,3.83
2017-09-13T20:34:23.016Z,4.80
2017-09-13T20:36:49.598Z,4.13
2017-09-13T20:39:16.189Z,4.37
2017-09-13T20:41:43.718Z,3.57
2017-09-13T20:44:10.468Z,4.63
2017-09-13T20:46:37.045Z,5.50
2017-09-13T20:49:03.625Z,5.03
2017-09-13T20:51:30.386Z,4.70
2017-09-13T20:53:56.964Z,4.90
2017-09-13T20:56:23.579Z,4.43
2017-09-13T20:58:50.161Z,3.97
2017-09-13T21:01:16.786Z,4.17
2017-09-13T21:03:43.412Z,4.50
2017-09-13T21:06:09.985Z,4.57
2017-09-13T21:08:36.569Z,3.93
2017-09-13T21:11:03.160Z,3.97
2017-09-13T21:13:29.897Z,4.17
2017-09-13T21:15:56.477Z,3.97
2017-09-13T21:18:23.074Z,3.93
2017-09-13T21:20:49.705Z,3.53
2017-09-13T21:23:16.278Z,3.70
2017-09-13T21:25:42.852Z,3.60
2017-09-13T21:28:09.436Z,3.63
2017-09-13T21:30:36.042Z,3.30
2017-09-13T21:33:02.617Z,3.37
2017-09-13T21:35:29.302Z,3.10
2017-09-13T21:37:55.881Z,3.13
2017-09-13T21:40:22.458Z,3.20
2017-09-13T21:42:49.052Z,3.10
2017-09-13T21:45:15.640Z,3.20
2017-09-13T21:47:42.208Z,3.20
2017-09-13T21:50:08.795Z,2.93
2017-09-13T21:52:35.364Z,2.63
2017-09-13T21:55:01.947Z,3.03
2017-09-13T21:57:28.681Z,2.20
2017-09-13T21:59:55.264Z,2.50
2017-09-13T22:02:21.833Z,2.70
2017-09-13T22:04:48.425Z,2.60
2017-09-13T22:07:15.006Z,2.60
2017-09-13T22:09:41.588Z,2.20
2017-09-13T22:12:10.925Z,2.37
2017-09-13T22:14:37.520Z,2.23
2017-09-13T22:17:04.921Z,2.17
2017-09-13T22:19:31.518Z,2.03
2017-09-13T22:21:58.173Z,2.43
2017-09-13T22:24:24.745Z,2.00
2017-09-13T22:26:51.324Z,1.90
2017-09-13T22:29:17.897Z,2.20
2017-09-13T22:31:44.589Z,2.00
2017-09-13T22:34:11.165Z,1.93
2017-09-13T22:36:37.741Z,1.80
2017-09-13T22:39:04.353Z,1.73
2017-09-13T22:41:30.921Z,1.90
2017-09-13T22:43:57.589Z,1.90
2017-09-13T22:46:24.191Z,1.73
2017-09-13T22:48:50.839Z,1.97
2017-09-13T22:51:17.426Z,1.80
2017-09-13T22:53:44.147Z,1.87
2017-09-13T22:56:10.737Z,2.07
2017-09-13T22:58:37.310Z,2.00
2017-09-13T23:01:03.883Z,1.60
2017-09-13T23:03:30.461Z,1.83
2017-09-13T23:05:57.042Z,1.80
2017-09-13T23:08:23.622Z,1.80
2017-09-13T23:10:50.200Z,1.57
2017-09-13T23:13:26.504Z,1.90
2017-09-13T23:15:53.241Z,1.70
2017-09-13T23:18:19.823Z,1.60
2017-09-13T23:20:46.400Z,1.80
2017-09-13T23:23:12.980Z,1.90
2017-09-13T23:25:39.572Z,2.33
2017-09-13T23:28:06.137Z,1.80
2017-09-13T23:30:32.722Z,1.70
2017-09-13T23:32:59.305Z,1.80
2017-09-13T23:35:25.878Z,2.37
2017-09-13T23:37:52.488Z,1.93
2017-09-13T23:40:19.065Z,1.47
2017-09-13T23:42:45.664Z,2.13
2017-09-13T23:45:12.252Z,1.90
2017-09-13T23:47:38.829Z,1.87
2017-09-13T23:50:05.413Z,1.60
2017-09-13T23:52:31.990Z,1.93
2017-09-13T23:54:58.577Z,1.60
2017-09-13T23:57:25.157Z,2.37
2017-09-13T23:59:51.762Z,1.70
